Time;durP1;ratioP1;P1;durP2;ratioP2;P2;SDS_P1;SDS_P2;PMS_P1;PMS_P2;Temp;Humidity;BMP_temperature;BMP_pressure;BME280_temperature;BME280_humidity;BME280_pressure;Samples;Min_cycle;Max_cycle;Signal;HPM_P1;HPM_P2
2021/07/18 00:02:33;;;;;;;5.7;4.5;;;;;;;20.0;60.3;102280;;;;
2021/07/18 00:06:33;;;;;;;5.7;4.5;;;;;;;19.9;61.4;102290;;;;
2021/07/18 00:10:33;;;;;;;5.2;4.7;;;;;;;20.0;60.5;102280;;;;
2021/07/18 00:12:33;;;;;;;5.2;4.7;;;;;;;19.9;60.7;102280;;;;
2021/07/18 00:18:33;;;;;;;5.2;4.7;;;;;;;19.7;62.0;102280;;;;
2021/07/18 00:20:33;;;;;;;5.2;4.7;;;;;;;19.6;62.2;102270;;;;
2021/07/18 00:24:33;;;;;;;5.2;4.7;;;;;;;19.7;62.2;102270;;;;
2021/07/18 00:26:33;;;;;;;5.2;4.7;;;;;;;19.6;63.0;102270;;;;
2021/07/18 00:30:33;;;;;;;6.3;5.1;;;;;;;19.8;61.6;102270;;;;
2021/07/18 00:32:33;;;;;;;6.3;5.1;;;;;;;19.6;62.5;102270;;;;
2021/07/18 00:36:33;;;;;;;6.3;5.1;;;;;;;19.7;61.7;102270;;;;
2021/07/18 00:38:33;;;;;;;6.3;5.1;;;;;;;19.6;62.6;102270;;;;
2021/07/18 00:40:33;;;;;;;6.3;5.1;;;;;;;19.7;61.9;102270;;;;
2021/07/18 00:42:33;;;;;;;6.3;5.1;;;;;;;19.6;61.8;102270;;;;
2021/07/18 00:44:33;;;;;;;6.3;5.1;;;;;;;19.5;62.9;102270;;;;
2021/07/18 00:46:33;;;;;;;6.3;5.1;;;;;;;19.6;62.0;102270;;;;
2021/07/18 00:48:33;;;;;;;6.3;5.1;;;;;;;19.5;62.1;102260;;;;
2021/07/18 00:52:33;;;;;;;5.7;4.9;;;;;;;19.3;62.9;102260;;;;
2021/07/18 00:54:33;;;;;;;5.7;4.9;;;;;;;19.5;62.4;102260;;;;
2021/07/18 01:04:33;;;;;;;5.7;4.9;;;;;;;19.4;62.4;102260;;;;
2021/07/18 01:08:33;;;;;;;5.7;4.9;;;;;;;19.2;62.5;102260;;;;
2021/07/18 01:10:33;;;;;;;6.5;5.6;;;;;;;19.4;61.9;102260;;;;
2021/07/18 01:12:33;;;;;;;6.5;5.6;;;;;;;19.2;62.7;102260;;;;
2021/07/18 01:14:33;;;;;;;6.5;5.6;;;;;;;19.3;62.1;102260;;;;
2021/07/18 01:16:33;;;;;;;6.5;5.6;;;;;;;19.2;62.5;102270;;;;
2021/07/18 01:22:33;;;;;;;6.5;5.6;;;;;;;19.1;63.5;102260;;;;
2021/07/18 01:30:33;;;;;;;9.6;6.4;;;;;;;19.2;62.4;102260;;;;
2021/07/18 01:32:33;;;;;;;9.6;6.4;;;;;;;19.1;62.9;102260;;;;
2021/07/18 01:38:33;;;;;;;9.6;6.4;;;;;;;19.0;63.9;102250;;;;
2021/07/18 01:40:33;;;;;;;9.6;6.4;;;;;;;18.9;64.3;102250;;;;
2021/07/18 01:48:33;;;;;;;9.6;6.4;;;;;;;18.8;64.4;102250;;;;
2021/07/18 01:50:33;;;;;;;7.3;6.3;;;;;;;19.0;63.2;102240;;;;
2021/07/18 01:52:33;;;;;;;7.3;6.3;;;;;;;18.9;63.4;102250;;;;
2021/07/18 01:54:33;;;;;;;7.3;6.3;;;;;;;18.8;63.2;102250;;;;
2021/07/18 01:56:33;;;;;;;7.3;6.3;;;;;;;18.9;63.1;102240;;;;
2021/07/18 01:58:33;;;;;;;7.3;6.3;;;;;;;18.8;64.1;102240;;;;
2021/07/18 02:00:33;;;;;;;7.3;6.3;;;;;;;18.7;64.5;102240;;;;
2021/07/18 02:08:33;;;;;;;7.3;6.3;;;;;;;18.6;64.7;102230;;;;
2021/07/18 02:10:33;;;;;;;7.8;7.0;;;;;;;18.8;64.6;102230;;;;
2021/07/18 02:14:33;;;;;;;7.8;7.0;;;;;;;18.7;64.5;102230;;;;
2021/07/18 02:16:33;;;;;;;7.8;7.0;;;;;;;18.6;65.0;102230;;;;
2021/07/18 02:18:33;;;;;;;7.8;7.0;;;;;;;18.5;64.7;102230;;;;
2021/07/18 02:20:33;;;;;;;7.8;7.0;;;;;;;18.6;64.4;102230;;;;
2021/07/18 02:26:33;;;;;;;7.8;7.0;;;;;;;18.5;65.2;102230;;;;
2021/07/18 02:28:33;;;;;;;7.8;7.0;;;;;;;18.4;65.0;102230;;;;
2021/07/18 02:30:33;;;;;;;8.7;7.7;;;;;;;18.3;66.8;102220;;;;
2021/07/18 02:32:33;;;;;;;8.7;7.7;;;;;;;18.4;65.3;102220;;;;
2021/07/18 02:36:33;;;;;;;8.7;7.7;;;;;;;18.3;66.0;102230;;;;
2021/07/18 02:38:33;;;;;;;8.7;7.7;;;;;;;18.5;66.1;102230;;;;
2021/07/18 02:40:33;;;;;;;8.7;7.7;;;;;;;18.2;66.6;102230;;;;
2021/07/18 02:44:33;;;;;;;8.7;7.7;;;;;;;18.3;65.5;102230;;;;
2021/07/18 02:48:33;;;;;;;8.7;7.7;;;;;;;18.4;64.6;102230;;;;
2021/07/18 02:52:33;;;;;;;10.9;8.6;;;;;;;18.3;66.5;102230;;;;
2021/07/18 02:54:33;;;;;;;10.9;8.6;;;;;;;18.2;65.8;102230;;;;
2021/07/18 02:58:33;;;;;;;10.9;8.6;;;;;;;18.1;66.4;102220;;;;
2021/07/18 03:04:33;;;;;;;10.9;8.6;;;;;;;18.2;65.8;102230;;;;
2021/07/18 03:08:34;;;;;;;10.9;8.6;;;;;;;18.1;67.2;102220;;;;
2021/07/18 03:10:33;;;;;;;9.5;8.3;;;;;;;18.2;66.0;102220;;;;
2021/07/18 03:12:33;;;;;;;9.5;8.3;;;;;;;18.1;66.3;102220;;;;
2021/07/18 03:14:33;;;;;;;9.5;8.3;;;;;;;18.0;67.1;102220;;;;
2021/07/18 03:16:37;;;;;;;9.5;8.3;;;;;;;18.1;65.8;102220;;;;
2021/07/18 03:20:33;;;;;;;9.5;8.3;;;;;;;18.0;66.4;102220;;;;
2021/07/18 03:22:33;;;;;;;9.5;8.3;;;;;;;18.1;65.6;102220;;;;
2021/07/18 03:24:33;;;;;;;9.5;8.3;;;;;;;18.0;65.9;102210;;;;
2021/07/18 03:34:33;;;;;;;10.0;8.7;;;;;;;17.8;67.4;102220;;;;
2021/07/18 03:36:33;;;;;;;10.0;8.7;;;;;;;17.9;66.5;102220;;;;
2021/07/18 03:38:33;;;;;;;10.0;8.7;;;;;;;17.8;67.3;102220;;;;
2021/07/18 03:40:33;;;;;;;10.0;8.7;;;;;;;17.7;69.2;102220;;;;
2021/07/18 03:42:33;;;;;;;10.0;8.7;;;;;;;17.9;66.4;102220;;;;
2021/07/18 03:48:33;;;;;;;10.0;8.7;;;;;;;18.0;65.9;102220;;;;
2021/07/18 03:50:33;;;;;;;10.2;9.2;;;;;;;17.7;68.9;102220;;;;
2021/07/18 03:52:33;;;;;;;10.2;9.2;;;;;;;17.8;66.6;102220;;;;
2021/07/18 03:58:33;;;;;;;10.2;9.2;;;;;;;17.5;68.5;102230;;;;
2021/07/18 04:00:33;;;;;;;10.2;9.2;;;;;;;17.7;68.9;102230;;;;
2021/07/18 04:04:34;;;;;;;10.2;9.2;;;;;;;17.8;67.7;102230;;;;
2021/07/18 04:10:33;;;;;;;11.0;9.8;;;;;;;17.6;67.9;102230;;;;
2021/07/18 04:12:33;;;;;;;11.0;9.8;;;;;;;17.7;68.0;102230;;;;
2021/07/18 04:14:33;;;;;;;11.0;9.8;;;;;;;17.6;68.5;102230;;;;
2021/07/18 04:16:33;;;;;;;11.0;9.8;;;;;;;17.7;67.4;102230;;;;
2021/07/18 04:22:33;;;;;;;11.0;9.8;;;;;;;17.6;69.7;102230;;;;
2021/07/18 04:24:33;;;;;;;11.0;9.8;;;;;;;17.8;68.3;102230;;;;
2021/07/18 04:28:33;;;;;;;11.0;9.8;;;;;;;17.9;66.6;102230;;;;
2021/07/18 04:32:33;;;;;;;12.7;10.3;;;;;;;17.7;68.7;102230;;;;
2021/07/18 04:34:33;;;;;;;12.7;10.3;;;;;;;17.8;66.1;102230;;;;
2021/07/18 04:36:33;;;;;;;12.7;10.3;;;;;;;17.9;66.1;102230;;;;
2021/07/18 04:42:33;;;;;;;12.7;10.3;;;;;;;17.8;67.0;102230;;;;
2021/07/18 04:44:33;;;;;;;12.7;10.3;;;;;;;17.9;67.1;102230;;;;
2021/07/18 04:46:33;;;;;;;12.7;10.3;;;;;;;17.8;66.9;102230;;;;
2021/07/18 04:48:33;;;;;;;12.7;10.3;;;;;;;17.9;67.4;102230;;;;
2021/07/18 05:02:33;;;;;;;13.6;11.3;;;;;;;18.0;67.6;102240;;;;
2021/07/18 05:06:33;;;;;;;13.6;11.3;;;;;;;18.1;66.9;102240;;;;
2021/07/18 05:20:33;;;;;;;13.2;11.8;;;;;;;18.2;66.2;102240;;;;
2021/07/18 05:24:33;;;;;;;13.2;11.8;;;;;;;18.1;68.2;102240;;;;
2021/07/18 05:28:33;;;;;;;13.2;11.8;;;;;;;18.4;67.2;102240;;;;
2021/07/18 05:30:33;;;;;;;14.9;12.8;;;;;;;18.3;67.3;102240;;;;
2021/07/18 05:34:33;;;;;;;14.9;12.8;;;;;;;18.4;67.1;102240;;;;
2021/07/18 05:36:33;;;;;;;14.9;12.8;;;;;;;18.5;66.2;102240;;;;
2021/07/18 05:42:33;;;;;;;14.9;12.8;;;;;;;18.6;67.8;102240;;;;
2021/07/18 05:48:33;;;;;;;13.4;12.0;;;;;;;18.8;67.2;102240;;;;
2021/07/18 05:50:33;;;;;;;13.4;12.0;;;;;;;18.7;67.8;102240;;;;
2021/07/18 05:54:34;;;;;;;13.4;12.0;;;;;;;18.8;66.9;102240;;;;
2021/07/18 06:00:33;;;;;;;13.4;12.0;;;;;;;18.9;66.1;102240;;;;
2021/07/18 06:04:33;;;;;;;13.4;12.0;;;;;;;19.0;65.4;102240;;;;
2021/07/18 06:08:33;;;;;;;10.8;9.7;;;;;;;19.1;67.2;102240;;;;
2021/07/18 06:12:33;;;;;;;10.8;9.7;;;;;;;19.2;65.3;102230;;;;
2021/07/18 06:14:33;;;;;;;10.8;9.7;;;;;;;19.3;66.8;102230;;;;
2021/07/18 06:18:33;;;;;;;10.8;9.7;;;;;;;19.2;66.5;102230;;;;
2021/07/18 06:20:35;;;;;;;10.8;9.7;;;;;;;19.3;66.2;102230;;;;
2021/07/18 06:22:33;;;;;;;10.8;9.7;;;;;;;19.4;66.5;102230;;;;
2021/07/18 06:24:33;;;;;;;10.8;9.7;;;;;;;19.5;66.5;102230;;;;
2021/07/18 06:26:33;;;;;;;10.8;9.7;;;;;;;19.6;66.8;102230;;;;
2021/07/18 06:28:33;;;;;;;10.8;8.7;;;;;;;19.4;66.7;102230;;;;
2021/07/18 06:30:33;;;;;;;10.8;8.7;;;;;;;19.5;66.1;102230;;;;
2021/07/18 06:32:33;;;;;;;10.8;8.7;;;;;;;19.7;66.1;102230;;;;
2021/07/18 06:42:33;;;;;;;10.8;8.7;;;;;;;19.8;65.1;102230;;;;
2021/07/18 06:44:33;;;;;;;10.8;8.7;;;;;;;19.9;66.1;102230;;;;
2021/07/18 06:46:33;;;;;;;10.8;8.7;;;;;;;20.0;65.4;102240;;;;
2021/07/18 06:52:33;;;;;;;10.3;9.2;;;;;;;20.1;65.3;102240;;;;
2021/07/18 06:54:33;;;;;;;10.3;9.2;;;;;;;20.0;64.6;102240;;;;
2021/07/18 06:56:33;;;;;;;10.3;9.2;;;;;;;20.2;65.0;102240;;;;
2021/07/18 06:58:33;;;;;;;10.3;9.2;;;;;;;20.1;65.1;102240;;;;
2021/07/18 07:00:33;;;;;;;10.3;9.2;;;;;;;20.2;64.3;102240;;;;
2021/07/18 07:02:33;;;;;;;10.3;9.2;;;;;;;20.3;64.3;102240;;;;
2021/07/18 07:04:33;;;;;;;10.3;9.2;;;;;;;20.4;64.8;102250;;;;
2021/07/18 07:06:33;;;;;;;10.3;9.2;;;;;;;20.5;64.2;102250;;;;
2021/07/18 07:08:33;;;;;;;9.4;8.5;;;;;;;20.4;64.2;102250;;;;
2021/07/18 07:12:33;;;;;;;9.4;8.5;;;;;;;20.5;63.7;102240;;;;
2021/07/18 07:16:35;;;;;;;9.4;8.5;;;;;;;20.6;63.9;102240;;;;
2021/07/18 07:18:33;;;;;;;9.4;8.5;;;;;;;20.7;64.1;102240;;;;
2021/07/18 07:20:33;;;;;;;9.4;8.5;;;;;;;20.9;64.0;102240;;;;
2021/07/18 07:24:33;;;;;;;9.4;8.5;;;;;;;20.8;63.4;102240;;;;
2021/07/18 07:26:33;;;;;;;9.4;8.5;;;;;;;20.9;63.7;102240;;;;
2021/07/18 07:28:33;;;;;;;9.9;8.9;;;;;;;21.2;63.2;102240;;;;
2021/07/18 07:34:33;;;;;;;9.9;8.9;;;;;;;21.3;63.0;102240;;;;
2021/07/18 07:40:33;;;;;;;9.9;8.9;;;;;;;21.4;62.1;102240;;;;
2021/07/18 07:42:33;;;;;;;9.9;8.9;;;;;;;21.5;62.5;102230;;;;
2021/07/18 07:44:33;;;;;;;9.9;8.9;;;;;;;21.6;61.8;102230;;;;
2021/07/18 07:52:33;;;;;;;8.0;5.6;;;;;;;21.7;61.2;102230;;;;
2021/07/18 07:56:33;;;;;;;8.0;5.6;;;;;;;21.6;61.2;102230;;;;
2021/07/18 08:02:33;;;;;;;8.0;5.6;;;;;;;21.9;60.8;102230;;;;
2021/07/18 08:06:33;;;;;;;8.0;5.6;;;;;;;22.0;60.8;102220;;;;
2021/07/18 08:08:40;;;;;;;3.1;2.9;;;;;;;22.2;60.5;102220;;;;
2021/07/18 08:10:34;;;;;;;3.1;2.9;;;;;;;22.3;60.6;102230;;;;
2021/07/18 08:12:33;;;;;;;3.1;2.9;;;;;;;22.2;59.2;102220;;;;
2021/07/18 08:16:33;;;;;;;3.1;2.9;;;;;;;22.5;60.0;102220;;;;
2021/07/18 08:22:33;;;;;;;3.1;2.9;;;;;;;22.6;59.5;102220;;;;
2021/07/18 08:24:33;;;;;;;3.1;2.9;;;;;;;22.5;59.1;102220;;;;
2021/07/18 08:28:33;;;;;;;4.4;3.0;;;;;;;22.6;59.1;102220;;;;
2021/07/18 08:32:33;;;;;;;4.4;3.0;;;;;;;22.7;58.7;102220;;;;
2021/07/18 08:34:33;;;;;;;4.4;3.0;;;;;;;22.6;58.8;102210;;;;
2021/07/18 08:36:33;;;;;;;4.4;3.0;;;;;;;22.8;58.7;102210;;;;
2021/07/18 08:38:33;;;;;;;4.4;3.0;;;;;;;22.9;58.2;102210;;;;
2021/07/18 08:42:33;;;;;;;4.4;3.0;;;;;;;23.1;58.9;102210;;;;
2021/07/18 08:44:33;;;;;;;4.4;3.0;;;;;;;23.3;59.0;102210;;;;
2021/07/18 08:48:33;;;;;;;4.1;2.6;;;;;;;23.5;58.5;102210;;;;
2021/07/18 08:50:34;;;;;;;4.1;2.6;;;;;;;23.2;58.1;102210;;;;
2021/07/18 08:54:33;;;;;;;4.1;2.6;;;;;;;23.5;57.9;102210;;;;
2021/07/18 08:56:35;;;;;;;4.1;2.6;;;;;;;23.4;57.6;102210;;;;
2021/07/18 08:58:35;;;;;;;4.1;2.6;;;;;;;23.6;57.6;102220;;;;
2021/07/18 09:00:33;;;;;;;4.1;2.6;;;;;;;23.7;57.2;102210;;;;
2021/07/18 09:02:33;;;;;;;4.1;2.6;;;;;;;23.8;57.3;102210;;;;
2021/07/18 09:06:33;;;;;;;4.1;2.6;;;;;;;23.9;56.5;102210;;;;
2021/07/18 09:08:33;;;;;;;4.3;2.9;;;;;;;24.0;56.9;102210;;;;
2021/07/18 09:14:33;;;;;;;4.3;2.9;;;;;;;24.2;56.4;102210;;;;
2021/07/18 09:16:33;;;;;;;4.3;2.9;;;;;;;24.1;56.4;102200;;;;
2021/07/18 09:18:33;;;;;;;4.3;2.9;;;;;;;24.3;56.9;102210;;;;
2021/07/18 09:20:33;;;;;;;4.3;2.9;;;;;;;24.2;56.0;102200;;;;
2021/07/18 09:22:33;;;;;;;4.3;2.9;;;;;;;24.4;56.8;102200;;;;
2021/07/18 09:24:33;;;;;;;4.3;2.9;;;;;;;24.5;56.1;102200;;;;
2021/07/18 09:30:33;;;;;;;5.2;3.2;;;;;;;24.6;54.9;102210;;;;
2021/07/18 09:32:34;;;;;;;5.2;3.2;;;;;;;24.7;55.2;102210;;;;
2021/07/18 09:36:33;;;;;;;5.2;3.2;;;;;;;24.8;55.2;102200;;;;
2021/07/18 09:38:33;;;;;;;5.2;3.2;;;;;;;24.7;55.4;102190;;;;
2021/07/18 09:40:38;;;;;;;5.2;3.2;;;;;;;24.8;55.1;102200;;;;
2021/07/18 09:46:34;;;;;;;5.2;3.2;;;;;;;24.7;54.7;102190;;;;
2021/07/18 09:48:35;;;;;;;4.1;2.6;;;;;;;25.0;54.7;102190;;;;
2021/07/18 09:50:33;;;;;;;4.1;2.6;;;;;;;24.9;54.3;102190;;;;
2021/07/18 09:52:35;;;;;;;4.1;2.6;;;;;;;24.8;54.6;102190;;;;
2021/07/18 09:54:33;;;;;;;4.1;2.6;;;;;;;25.1;54.3;102190;;;;
2021/07/18 09:56:33;;;;;;;4.1;2.6;;;;;;;25.2;54.1;102190;;;;
2021/07/18 10:00:33;;;;;;;4.1;2.6;;;;;;;25.3;54.0;102190;;;;
2021/07/18 10:02:33;;;;;;;4.1;2.6;;;;;;;25.4;53.4;102180;;;;
2021/07/18 10:04:33;;;;;;;4.1;2.6;;;;;;;25.3;53.2;102170;;;;
2021/07/18 10:10:33;;;;;;;5.4;3.3;;;;;;;25.4;53.6;102170;;;;
2021/07/18 10:12:34;;;;;;;5.4;3.3;;;;;;;25.5;52.9;102170;;;;
2021/07/18 10:16:34;;;;;;;5.4;3.3;;;;;;;25.6;53.3;102170;;;;
2021/07/18 10:22:33;;;;;;;5.4;3.3;;;;;;;25.7;52.9;102160;;;;
2021/07/18 10:26:33;;;;;;;5.4;3.3;;;;;;;25.8;52.2;102170;;;;
2021/07/18 10:28:33;;;;;;;4.4;2.7;;;;;;;25.9;52.3;102160;;;;
2021/07/18 10:34:35;;;;;;;4.4;2.7;;;;;;;26.0;51.3;102170;;;;
2021/07/18 10:36:33;;;;;;;4.4;2.7;;;;;;;25.9;52.1;102160;;;;
2021/07/18 10:38:33;;;;;;;4.4;2.7;;;;;;;26.1;52.4;102160;;;;
2021/07/18 10:40:33;;;;;;;4.4;2.7;;;;;;;26.3;51.2;102160;;;;
2021/07/18 10:44:33;;;;;;;4.4;2.7;;;;;;;26.1;52.2;102160;;;;
2021/07/18 10:46:33;;;;;;;4.4;2.7;;;;;;;26.2;51.9;102160;;;;
2021/07/18 10:48:33;;;;;;;3.6;2.6;;;;;;;26.4;51.6;102160;;;;
2021/07/18 10:50:33;;;;;;;3.6;2.6;;;;;;;26.3;52.0;102160;;;;
2021/07/18 10:52:33;;;;;;;3.6;2.6;;;;;;;26.5;52.3;102160;;;;
2021/07/18 10:56:33;;;;;;;3.6;2.6;;;;;;;26.4;50.9;102160;;;;
2021/07/18 10:58:33;;;;;;;3.6;2.6;;;;;;;26.5;51.9;102150;;;;
2021/07/18 11:02:34;;;;;;;3.6;2.6;;;;;;;26.7;50.6;102150;;;;
2021/07/18 11:04:33;;;;;;;3.6;2.6;;;;;;;26.6;51.5;102150;;;;
2021/07/18 11:06:34;;;;;;;3.6;2.6;;;;;;;26.5;50.9;102150;;;;
2021/07/18 11:08:33;;;;;;;5.0;2.8;;;;;;;26.7;51.3;102150;;;;
2021/07/18 11:10:33;;;;;;;5.0;2.8;;;;;;;26.6;50.9;102150;;;;
2021/07/18 11:14:35;;;;;;;5.0;2.8;;;;;;;26.7;48.9;102150;;;;
2021/07/18 11:16:34;;;;;;;5.0;2.8;;;;;;;26.6;50.0;102150;;;;
2021/07/18 11:18:43;;;;;;;5.0;2.8;;;;;;;26.7;48.9;102150;;;;
2021/07/18 11:20:33;;;;;;;5.0;2.8;;;;;;;26.8;49.0;102140;;;;
2021/07/18 11:22:33;;;;;;;5.0;2.8;;;;;;;27.0;49.0;102130;;;;
2021/07/18 11:24:33;;;;;;;5.0;2.8;;;;;;;26.9;49.5;102120;;;;
2021/07/18 11:26:33;;;;;;;5.0;2.8;;;;;;;27.0;49.6;102120;;;;
2021/07/18 11:30:33;;;;;;;3.3;2.8;;;;;;;27.1;49.1;102120;;;;
2021/07/18 11:32:34;;;;;;;3.3;2.8;;;;;;;26.9;48.8;102120;;;;
2021/07/18 11:34:33;;;;;;;3.3;2.8;;;;;;;27.0;48.5;102120;;;;
2021/07/18 11:36:33;;;;;;;3.3;2.8;;;;;;;27.1;49.1;102120;;;;
2021/07/18 11:38:33;;;;;;;3.3;2.8;;;;;;;27.2;49.3;102130;;;;
2021/07/18 11:40:33;;;;;;;3.3;2.8;;;;;;;27.3;49.0;102120;;;;
2021/07/18 11:44:33;;;;;;;3.3;2.8;;;;;;;27.5;48.8;102120;;;;
2021/07/18 11:48:33;;;;;;;2.9;2.4;;;;;;;27.4;48.1;102110;;;;
2021/07/18 11:50:33;;;;;;;2.9;2.4;;;;;;;27.6;49.2;102120;;;;
2021/07/18 11:52:33;;;;;;;2.9;2.4;;;;;;;27.8;48.3;102120;;;;
2021/07/18 11:54:33;;;;;;;2.9;2.4;;;;;;;27.7;48.9;102120;;;;
2021/07/18 11:56:33;;;;;;;2.9;2.4;;;;;;;27.4;48.6;102110;;;;
2021/07/18 11:58:33;;;;;;;2.9;2.4;;;;;;;27.5;49.3;102110;;;;
2021/07/18 12:00:37;;;;;;;2.9;2.4;;;;;;;27.8;48.1;102110;;;;
2021/07/18 12:02:36;;;;;;;2.9;2.4;;;;;;;27.9;47.8;102110;;;;
2021/07/18 12:04:33;;;;;;;2.9;2.4;;;;;;;27.6;48.2;102110;;;;
2021/07/18 12:06:33;;;;;;;2.9;2.4;;;;;;;27.8;48.2;102110;;;;
2021/07/18 12:08:34;;;;;;;3.5;2.6;;;;;;;28.0;48.2;102100;;;;
2021/07/18 12:10:33;;;;;;;3.5;2.6;;;;;;;28.1;48.1;102110;;;;
2021/07/18 12:12:33;;;;;;;3.5;2.6;;;;;;;28.0;48.1;102100;;;;
2021/07/18 12:14:34;;;;;;;3.5;2.6;;;;;;;28.2;46.9;102100;;;;
2021/07/18 12:16:33;;;;;;;3.5;2.6;;;;;;;28.3;47.7;102100;;;;
2021/07/18 12:18:33;;;;;;;3.5;2.6;;;;;;;28.6;47.5;102110;;;;
2021/07/18 12:20:33;;;;;;;3.5;2.6;;;;;;;28.5;46.1;102100;;;;
2021/07/18 12:24:33;;;;;;;3.5;2.6;;;;;;;28.4;46.9;102090;;;;
2021/07/18 12:26:33;;;;;;;3.5;2.6;;;;;;;28.3;47.3;102090;;;;
2021/07/18 12:30:33;;;;;;;3.1;2.6;;;;;;;28.5;46.7;102100;;;;
2021/07/18 12:32:33;;;;;;;3.1;2.6;;;;;;;28.6;47.7;102100;;;;
2021/07/18 12:40:33;;;;;;;3.1;2.6;;;;;;;28.5;47.7;102090;;;;
2021/07/18 12:42:33;;;;;;;3.1;2.6;;;;;;;28.3;47.6;102080;;;;
2021/07/18 12:44:34;;;;;;;3.1;2.6;;;;;;;28.6;46.6;102080;;;;
2021/07/18 12:48:33;;;;;;;3.3;2.7;;;;;;;28.5;46.9;102080;;;;
2021/07/18 12:50:33;;;;;;;3.3;2.7;;;;;;;28.7;47.5;102070;;;;
2021/07/18 12:52:33;;;;;;;3.3;2.7;;;;;;;28.8;45.7;102070;;;;
2021/07/18 12:58:34;;;;;;;3.3;2.7;;;;;;;28.6;47.6;102070;;;;
2021/07/18 13:00:33;;;;;;;3.3;2.7;;;;;;;28.7;45.8;102070;;;;
2021/07/18 13:02:34;;;;;;;3.3;2.7;;;;;;;28.8;46.3;102070;;;;
2021/07/18 13:04:33;;;;;;;3.3;2.7;;;;;;;28.9;47.0;102070;;;;
2021/07/18 13:08:33;;;;;;;3.5;2.6;;;;;;;29.1;46.4;102060;;;;
2021/07/18 13:14:33;;;;;;;3.5;2.6;;;;;;;29.2;45.5;102070;;;;
2021/07/18 13:16:33;;;;;;;3.5;2.6;;;;;;;29.3;44.7;102060;;;;
2021/07/18 13:22:33;;;;;;;3.5;2.6;;;;;;;29.5;46.5;102060;;;;
2021/07/18 13:26:33;;;;;;;3.5;2.6;;;;;;;29.4;47.1;102060;;;;
2021/07/18 13:28:34;;;;;;;4.4;2.7;;;;;;;29.3;45.0;102060;;;;
2021/07/18 13:30:33;;;;;;;4.4;2.7;;;;;;;29.2;48.1;102060;;;;
2021/07/18 13:32:33;;;;;;;4.4;2.7;;;;;;;29.1;48.1;102050;;;;
2021/07/18 13:34:33;;;;;;;4.4;2.7;;;;;;;29.3;47.5;102050;;;;
2021/07/18 13:36:33;;;;;;;4.4;2.7;;;;;;;29.5;48.3;102050;;;;
2021/07/18 13:40:34;;;;;;;4.4;2.7;;;;;;;29.3;47.5;102050;;;;
2021/07/18 13:42:33;;;;;;;4.4;2.7;;;;;;;29.4;48.4;102050;;;;
2021/07/18 13:44:33;;;;;;;4.4;2.7;;;;;;;29.5;45.4;102050;;;;
2021/07/18 13:46:34;;;;;;;4.4;2.7;;;;;;;29.6;46.4;102040;;;;
2021/07/18 13:48:33;;;;;;;4.1;2.9;;;;;;;29.5;46.5;102050;;;;
2021/07/18 13:50:33;;;;;;;4.1;2.9;;;;;;;29.6;47.0;102040;;;;
2021/07/18 13:52:33;;;;;;;4.1;2.9;;;;;;;29.5;45.2;102040;;;;
2021/07/18 13:54:33;;;;;;;4.1;2.9;;;;;;;29.2;45.8;102050;;;;
2021/07/18 13:56:33;;;;;;;4.1;2.9;;;;;;;29.4;45.3;102050;;;;
2021/07/18 13:58:33;;;;;;;4.1;2.9;;;;;;;29.6;46.3;102050;;;;
2021/07/18 14:00:33;;;;;;;4.1;2.9;;;;;;;29.7;47.2;102040;;;;
2021/07/18 14:02:34;;;;;;;4.1;2.9;;;;;;;29.5;46.7;102040;;;;
2021/07/18 14:04:33;;;;;;;4.1;2.9;;;;;;;29.7;45.9;102040;;;;
2021/07/18 14:06:33;;;;;;;4.1;2.9;;;;;;;29.8;45.7;102040;;;;
2021/07/18 14:10:33;;;;;;;3.8;3.0;;;;;;;29.7;46.2;102040;;;;
2021/07/18 14:12:33;;;;;;;3.8;3.0;;;;;;;30.0;46.3;102040;;;;
2021/07/18 14:14:33;;;;;;;3.8;3.0;;;;;;;29.8;45.1;102040;;;;
2021/07/18 14:16:33;;;;;;;3.8;3.0;;;;;;;29.9;44.9;102040;;;;
2021/07/18 14:22:33;;;;;;;3.8;3.0;;;;;;;30.1;44.0;102040;;;;
2021/07/18 14:24:36;;;;;;;3.8;3.0;;;;;;;30.2;43.3;102040;;;;
2021/07/18 14:30:33;;;;;;;4.2;3.3;;;;;;;30.4;43.2;102030;;;;
2021/07/18 14:32:33;;;;;;;4.2;3.3;;;;;;;30.5;43.2;102020;;;;
2021/07/18 14:34:33;;;;;;;4.2;3.3;;;;;;;30.7;41.7;102020;;;;
2021/07/18 14:36:33;;;;;;;4.2;3.3;;;;;;;30.8;43.5;102020;;;;
2021/07/18 14:38:33;;;;;;;4.2;3.3;;;;;;;30.9;43.6;102020;;;;
2021/07/18 14:40:35;;;;;;;4.2;3.3;;;;;;;30.7;43.2;102030;;;;
2021/07/18 14:42:33;;;;;;;4.2;3.3;;;;;;;30.8;44.6;102020;;;;
2021/07/18 14:46:33;;;;;;;4.2;3.3;;;;;;;30.9;42.2;102020;;;;
2021/07/18 14:48:33;;;;;;;3.3;2.8;;;;;;;30.8;41.5;102020;;;;
2021/07/18 14:56:33;;;;;;;3.3;2.8;;;;;;;31.1;41.7;102010;;;;
2021/07/18 14:58:33;;;;;;;3.3;2.8;;;;;;;31.2;43.2;102010;;;;
2021/07/18 15:00:34;;;;;;;3.3;2.8;;;;;;;31.5;41.4;102010;;;;
2021/07/18 15:04:33;;;;;;;3.3;2.8;;;;;;;31.9;39.8;102010;;;;
2021/07/18 15:06:33;;;;;;;3.3;2.8;;;;;;;31.8;38.3;102010;;;;
2021/07/18 15:08:38;;;;;;;4.7;3.5;;;;;;;32.2;40.0;102010;;;;
2021/07/18 15:10:34;;;;;;;4.7;3.5;;;;;;;31.8;40.2;102010;;;;
2021/07/18 15:12:33;;;;;;;4.7;3.5;;;;;;;32.3;39.0;102000;;;;
2021/07/18 15:14:33;;;;;;;4.7;3.5;;;;;;;32.7;39.9;102000;;;;
2021/07/18 15:16:33;;;;;;;4.7;3.5;;;;;;;32.8;38.0;102010;;;;
2021/07/18 15:18:33;;;;;;;4.7;3.5;;;;;;;33.0;37.9;102010;;;;
2021/07/18 15:20:34;;;;;;;4.7;3.5;;;;;;;33.1;39.4;102000;;;;
2021/07/18 15:22:33;;;;;;;4.7;3.5;;;;;;;33.0;37.6;102000;;;;
2021/07/18 15:24:33;;;;;;;4.7;3.5;;;;;;;33.5;39.8;102000;;;;
2021/07/18 15:26:33;;;;;;;4.7;3.5;;;;;;;33.4;39.4;102000;;;;
2021/07/18 15:30:33;;;;;;;3.2;2.9;;;;;;;33.2;37.0;102000;;;;
2021/07/18 15:32:33;;;;;;;3.2;2.9;;;;;;;33.3;38.6;102000;;;;
2021/07/18 15:34:33;;;;;;;3.2;2.9;;;;;;;33.7;38.9;102000;;;;
2021/07/18 15:38:33;;;;;;;3.2;2.9;;;;;;;34.0;35.9;101990;;;;
2021/07/18 15:40:35;;;;;;;3.2;2.9;;;;;;;33.6;35.8;102000;;;;
2021/07/18 15:48:34;;;;;;;3.3;3.0;;;;;;;33.7;38.5;101990;;;;
2021/07/18 15:50:33;;;;;;;3.3;3.0;;;;;;;33.2;38.5;101990;;;;
2021/07/18 15:52:36;;;;;;;3.3;3.0;;;;;;;33.0;35.5;101990;;;;
2021/07/18 15:54:33;;;;;;;3.3;3.0;;;;;;;32.8;39.9;101990;;;;
2021/07/18 15:56:34;;;;;;;3.3;3.0;;;;;;;32.5;36.5;101980;;;;
2021/07/18 15:58:38;;;;;;;3.3;3.0;;;;;;;32.1;39.1;101980;;;;
2021/07/18 16:00:33;;;;;;;3.3;3.0;;;;;;;32.2;39.8;101980;;;;
2021/07/18 16:02:34;;;;;;;3.3;3.0;;;;;;;32.5;39.9;101980;;;;
2021/07/18 16:06:33;;;;;;;3.3;3.0;;;;;;;32.4;38.8;101980;;;;
2021/07/18 16:10:33;;;;;;;4.1;3.7;;;;;;;32.0;38.5;101980;;;;
2021/07/18 16:14:33;;;;;;;4.1;3.7;;;;;;;31.7;38.5;101980;;;;
2021/07/18 16:16:34;;;;;;;4.1;3.7;;;;;;;32.0;39.0;101980;;;;
2021/07/18 16:18:33;;;;;;;4.1;3.7;;;;;;;32.1;36.7;101980;;;;
2021/07/18 16:20:33;;;;;;;4.1;3.7;;;;;;;32.5;38.7;101980;;;;
2021/07/18 16:24:33;;;;;;;4.1;3.7;;;;;;;32.4;37.1;101980;;;;
2021/07/18 16:26:35;;;;;;;4.1;3.7;;;;;;;32.2;36.1;101970;;;;
2021/07/18 16:28:35;;;;;;;3.5;3.2;;;;;;;32.7;35.6;101970;;;;
2021/07/18 16:30:33;;;;;;;3.5;3.2;;;;;;;32.8;37.9;101970;;;;
2021/07/18 16:34:33;;;;;;;3.5;3.2;;;;;;;33.0;36.0;101970;;;;
2021/07/18 16:36:35;;;;;;;3.5;3.2;;;;;;;32.8;34.8;101970;;;;
2021/07/18 16:38:33;;;;;;;3.5;3.2;;;;;;;32.9;36.5;101970;;;;
2021/07/18 16:40:33;;;;;;;3.5;3.2;;;;;;;33.4;35.8;101970;;;;
2021/07/18 16:42:33;;;;;;;3.5;3.2;;;;;;;32.8;35.8;101980;;;;
2021/07/18 16:44:33;;;;;;;3.5;3.2;;;;;;;32.7;34.2;101970;;;;
2021/07/18 16:46:34;;;;;;;3.5;3.2;;;;;;;33.0;36.6;101980;;;;
2021/07/18 16:48:33;;;;;;;3.4;3.1;;;;;;;33.3;35.3;101970;;;;
2021/07/18 16:50:34;;;;;;;3.4;3.1;;;;;;;33.5;34.1;101970;;;;
2021/07/18 16:52:34;;;;;;;3.4;3.1;;;;;;;33.3;33.5;101970;;;;
2021/07/18 16:54:33;;;;;;;3.4;3.1;;;;;;;33.1;35.7;101980;;;;
2021/07/18 16:56:33;;;;;;;3.4;3.1;;;;;;;32.6;35.4;101970;;;;
2021/07/18 16:58:33;;;;;;;3.4;3.1;;;;;;;33.0;35.5;101970;;;;
2021/07/18 17:02:34;;;;;;;3.4;3.1;;;;;;;33.3;34.7;101970;;;;
2021/07/18 17:04:33;;;;;;;3.4;3.1;;;;;;;33.1;33.4;101970;;;;
2021/07/18 17:06:33;;;;;;;3.4;3.1;;;;;;;33.5;35.5;101970;;;;
2021/07/18 17:08:33;;;;;;;3.0;2.8;;;;;;;33.3;34.3;101970;;;;
2021/07/18 17:10:34;;;;;;;3.0;2.8;;;;;;;33.6;35.2;101970;;;;
2021/07/18 17:12:33;;;;;;;3.0;2.8;;;;;;;33.8;34.6;101970;;;;
2021/07/18 17:14:33;;;;;;;3.0;2.8;;;;;;;33.3;33.6;101980;;;;
2021/07/18 17:16:33;;;;;;;3.0;2.8;;;;;;;32.8;34.1;101980;;;;
2021/07/18 17:18:33;;;;;;;3.0;2.8;;;;;;;33.0;34.5;101980;;;;
2021/07/18 17:20:33;;;;;;;3.0;2.8;;;;;;;33.4;36.2;101980;;;;
2021/07/18 17:22:33;;;;;;;3.0;2.8;;;;;;;32.8;34.1;101980;;;;
2021/07/18 17:28:33;;;;;;;3.1;2.8;;;;;;;33.2;34.4;101980;;;;
2021/07/18 17:30:33;;;;;;;3.1;2.8;;;;;;;33.3;35.2;101980;;;;
2021/07/18 17:32:33;;;;;;;3.1;2.8;;;;;;;32.6;34.3;101980;;;;
2021/07/18 17:34:33;;;;;;;3.1;2.8;;;;;;;32.5;34.5;101980;;;;
2021/07/18 17:36:34;;;;;;;3.1;2.8;;;;;;;32.6;34.6;101980;;;;
2021/07/18 17:38:33;;;;;;;3.1;2.8;;;;;;;32.8;33.4;101980;;;;
2021/07/18 17:40:35;;;;;;;3.1;2.8;;;;;;;32.9;34.3;101990;;;;
2021/07/18 17:42:33;;;;;;;3.1;2.8;;;;;;;32.5;33.5;101980;;;;
2021/07/18 17:44:33;;;;;;;3.1;2.8;;;;;;;32.2;34.8;101990;;;;
2021/07/18 17:48:33;;;;;;;3.7;2.9;;;;;;;31.5;35.4;101990;;;;
2021/07/18 17:50:33;;;;;;;3.7;2.9;;;;;;;31.7;35.3;101990;;;;
2021/07/18 17:52:33;;;;;;;3.7;2.9;;;;;;;31.6;36.1;102000;;;;
2021/07/18 17:54:33;;;;;;;3.7;2.9;;;;;;;31.2;36.1;102000;;;;
2021/07/18 17:56:33;;;;;;;3.7;2.9;;;;;;;30.8;36.7;101990;;;;
2021/07/18 17:58:33;;;;;;;3.7;2.9;;;;;;;30.6;37.1;102000;;;;
2021/07/18 18:00:34;;;;;;;3.7;2.9;;;;;;;30.4;36.6;102000;;;;
2021/07/18 18:02:34;;;;;;;3.7;2.9;;;;;;;29.9;37.9;102000;;;;
2021/07/18 18:04:33;;;;;;;3.7;2.9;;;;;;;30.0;37.6;102000;;;;
2021/07/18 18:06:33;;;;;;;3.7;2.9;;;;;;;29.7;37.9;102000;;;;
2021/07/18 18:08:33;;;;;;;3.4;3.0;;;;;;;29.0;38.6;102000;;;;
2021/07/18 18:10:33;;;;;;;3.4;3.0;;;;;;;28.8;40.0;102000;;;;
2021/07/18 18:12:33;;;;;;;3.4;3.0;;;;;;;28.7;39.7;101990;;;;
2021/07/18 18:14:36;;;;;;;3.4;3.0;;;;;;;28.5;40.2;102000;;;;
2021/07/18 18:18:34;;;;;;;3.4;3.0;;;;;;;28.6;41.0;101990;;;;
2021/07/18 18:20:34;;;;;;;3.4;3.0;;;;;;;28.1;40.8;101980;;;;
2021/07/18 18:22:34;;;;;;;3.4;3.0;;;;;;;28.0;41.2;101990;;;;
2021/07/18 18:24:33;;;;;;;3.4;3.0;;;;;;;28.3;42.1;101980;;;;
2021/07/18 18:26:33;;;;;;;3.4;3.0;;;;;;;28.2;42.2;101990;;;;
2021/07/18 18:28:35;;;;;;;3.5;2.9;;;;;;;28.1;42.4;101990;;;;
2021/07/18 18:30:34;;;;;;;3.5;2.9;;;;;;;27.9;42.6;101990;;;;
2021/07/18 18:34:33;;;;;;;3.5;2.9;;;;;;;27.8;43.1;101990;;;;
2021/07/18 18:36:33;;;;;;;3.5;2.9;;;;;;;27.6;43.8;101990;;;;
2021/07/18 18:38:33;;;;;;;3.5;2.9;;;;;;;27.5;43.4;101990;;;;
2021/07/18 18:42:33;;;;;;;3.5;2.9;;;;;;;27.4;44.2;101990;;;;
2021/07/18 18:46:34;;;;;;;3.5;2.9;;;;;;;27.3;44.6;101990;;;;
2021/07/18 18:48:34;;;;;;;5.3;3.1;;;;;;;27.5;44.3;101980;;;;
2021/07/18 18:50:33;;;;;;;5.3;3.1;;;;;;;27.2;44.6;101980;;;;